sensor_id;sensor_type;location;lat;lon;timestamp;temperature;humidity
43987;DHT22;29650;47.378;8.300;2023-05-13T00:00:38;12.90;99.90
43987;DHT22;29650;47.378;8.300;2023-05-13T00:03:05;12.90;99.90
43987;DHT22;29650;47.378;8.300;2023-05-13T00:05:32;12.80;99.90
43987;DHT22;29650;47.378;8.300;2023-05-13T00:07:59;12.90;99.90
43987;DHT22;29650;47.378;8.300;2023-05-13T00:10:36;12.90;99.90
43987;DHT22;29650;47.378;8.300;2023-05-13T00:13:03;12.60;99.90
43987;DHT22;29650;47.378;8.300;2023-05-13T00:15:30;12.90;99.90
43987;DHT22;29650;47.378;8.300;2023-05-13T00:17:58;13.10;99.90
43987;DHT22;29650;47.378;8.300;2023-05-13T00:20:25;12.80;99.90
43987;DHT22;29650;47.378;8.300;2023-05-13T00:22:52;13.00;99.90
43987;DHT22;29650;47.378;8.300;2023-05-13T00:25:19;12.90;99.90
43987;DHT22;29650;47.378;8.300;2023-05-13T00:27:46;12.90;99.90
43987;DHT22;29650;47.378;8.300;2023-05-13T00:30:14;13.10;99.90
43987;DHT22;29650;47.378;8.300;2023-05-13T00:32:49;13.10;99.90
43987;DHT22;29650;47.378;8.300;2023-05-13T00:35:24;13.00;99.90
43987;DHT22;29650;47.378;8.300;2023-05-13T00:38:05;13.10;99.90
43987;DHT22;29650;47.378;8.300;2023-05-13T00:40:44;12.90;99.90
43987;DHT22;29650;47.378;8.300;2023-05-13T00:43:12;13.00;99.90
43987;DHT22;29650;47.378;8.300;2023-05-13T00:45:40;13.00;99.90
43987;DHT22;29650;47.378;8.300;2023-05-13T00:51:04;12.70;99.90
43987;DHT22;29650;47.378;8.300;2023-05-13T00:56:52;12.90;99.90
43987;DHT22;29650;47.378;8.300;2023-05-13T00:59:38;12.90;99.90
43987;DHT22;29650;47.378;8.300;2023-05-13T01:02:09;12.90;99.90
43987;DHT22;29650;47.378;8.300;2023-05-13T01:04:43;12.90;99.90
43987;DHT22;29650;47.378;8.300;2023-05-13T01:07:21;12.90;99.90
43987;DHT22;29650;47.378;8.300;2023-05-13T01:09:55;13.00;99.90
43987;DHT22;29650;47.378;8.300;2023-05-13T01:12:31;13.00;99.90
43987;DHT22;29650;47.378;8.300;2023-05-13T01:15:04;12.90;99.90
43987;DHT22;29650;47.378;8.300;2023-05-13T01:17:34;12.90;99.90
43987;DHT22;29650;47.378;8.300;2023-05-13T01:20:03;12.90;99.90
43987;DHT22;29650;47.378;8.300;2023-05-13T01:22:32;12.90;99.90
43987;DHT22;29650;47.378;8.300;2023-05-13T01:24:59;13.00;99.90
43987;DHT22;29650;47.378;8.300;2023-05-13T01:27:29;13.00;99.90
43987;DHT22;29650;47.378;8.300;2023-05-13T01:30:01;13.00;99.90
43987;DHT22;29650;47.378;8.300;2023-05-13T01:32:46;13.00;99.90
43987;DHT22;29650;47.378;8.300;2023-05-13T01:35:14;13.00;99.90
43987;DHT22;29650;47.378;8.300;2023-05-13T01:37:43;13.00;99.90
43987;DHT22;29650;47.378;8.300;2023-05-13T01:40:11;12.80;99.90
43987;DHT22;29650;47.378;8.300;2023-05-13T01:42:39;12.90;99.90
43987;DHT22;29650;47.378;8.300;2023-05-13T01:45:29;12.90;99.90
43987;DHT22;29650;47.378;8.300;2023-05-13T01:48:07;12.90;99.90
43987;DHT22;29650;47.378;8.300;2023-05-13T01:50:43;13.00;99.90
43987;DHT22;29650;47.378;8.300;2023-05-13T01:53:12;13.10;99.90
43987;DHT22;29650;47.378;8.300;2023-05-13T01:55:39;13.10;99.90
43987;DHT22;29650;47.378;8.300;2023-05-13T01:58:06;13.10;99.90
43987;DHT22;29650;47.378;8.300;2023-05-13T02:00:34;13.00;99.90
43987;DHT22;29650;47.378;8.300;2023-05-13T02:03:02;11.50;99.90
43987;DHT22;29650;47.378;8.300;2023-05-13T02:05:31;12.90;99.90
43987;DHT22;29650;47.378;8.300;2023-05-13T02:07:58;12.90;99.90
43987;DHT22;29650;47.378;8.300;2023-05-13T02:10:27;12.90;99.90
43987;DHT22;29650;47.378;8.300;2023-05-13T02:12:54;12.90;99.90
43987;DHT22;29650;47.378;8.300;2023-05-13T02:15:22;11.80;99.90
43987;DHT22;29650;47.378;8.300;2023-05-13T02:17:59;13.00;99.90
43987;DHT22;29650;47.378;8.300;2023-05-13T02:20:43;13.00;99.90
43987;DHT22;29650;47.378;8.300;2023-05-13T02:23:30;12.90;99.90
43987;DHT22;29650;47.378;8.300;2023-05-13T02:25:59;13.00;99.90
43987;DHT22;29650;47.378;8.300;2023-05-13T02:28:26;13.00;99.90
43987;DHT22;29650;47.378;8.300;2023-05-13T02:30:53;12.80;99.90
43987;DHT22;29650;47.378;8.300;2023-05-13T02:33:20;12.80;99.90
43987;DHT22;29650;47.378;8.300;2023-05-13T02:38:30;12.80;99.90
43987;DHT22;29650;47.378;8.300;2023-05-13T02:40:58;12.90;99.90
43987;DHT22;29650;47.378;8.300;2023-05-13T02:43:26;12.90;99.90
43987;DHT22;29650;47.378;8.300;2023-05-13T02:48:44;12.90;99.90
43987;DHT22;29650;47.378;8.300;2023-05-13T02:51:11;12.80;99.90
43987;DHT22;29650;47.378;8.300;2023-05-13T02:53:38;12.90;99.90
43987;DHT22;29650;47.378;8.300;2023-05-13T02:56:06;12.90;99.90
43987;DHT22;29650;47.378;8.300;2023-05-13T02:58:34;12.90;99.90
43987;DHT22;29650;47.378;8.300;2023-05-13T03:01:01;12.90;99.90
43987;DHT22;29650;47.378;8.300;2023-05-13T03:03:28;12.80;99.90
43987;DHT22;29650;47.378;8.300;2023-05-13T03:05:55;12.90;99.90
43987;DHT22;29650;47.378;8.300;2023-05-13T03:08:22;12.90;99.90
43987;DHT22;29650;47.378;8.300;2023-05-13T03:10:50;12.80;99.90
43987;DHT22;29650;47.378;8.300;2023-05-13T03:13:25;12.60;99.90
43987;DHT22;29650;47.378;8.300;2023-05-13T03:16:08;12.70;99.90
43987;DHT22;29650;47.378;8.300;2023-05-13T03:18:35;12.70;99.90
43987;DHT22;29650;47.378;8.300;2023-05-13T03:21:02;12.70;99.90
43987;DHT22;29650;47.378;8.300;2023-05-13T03:23:29;12.90;99.90
43987;DHT22;29650;47.378;8.300;2023-05-13T03:25:59;12.80;99.90
43987;DHT22;29650;47.378;8.300;2023-05-13T03:28:35;12.90;99.90
43987;DHT22;29650;47.378;8.300;2023-05-13T03:31:02;12.70;99.90
43987;DHT22;29650;47.378;8.300;2023-05-13T03:33:29;12.80;99.90
43987;DHT22;29650;47.378;8.300;2023-05-13T03:35:56;12.80;99.90
43987;DHT22;29650;47.378;8.300;2023-05-13T03:38:22;12.90;99.90
43987;DHT22;29650;47.378;8.300;2023-05-13T03:40:49;12.90;99.90
43987;DHT22;29650;47.378;8.300;2023-05-13T03:43:16;13.00;99.90
43987;DHT22;29650;47.378;8.300;2023-05-13T03:45:45;13.00;99.90
43987;DHT22;29650;47.378;8.300;2023-05-13T03:48:13;12.90;99.90
43987;DHT22;29650;47.378;8.300;2023-05-13T03:50:50;13.00;99.90
43987;DHT22;29650;47.378;8.300;2023-05-13T03:56:24;12.90;99.90
43987;DHT22;29650;47.378;8.300;2023-05-13T03:59:08;12.90;99.90
43987;DHT22;29650;47.378;8.300;2023-05-13T04:01:41;12.90;99.90
43987;DHT22;29650;47.378;8.300;2023-05-13T04:04:09;12.90;99.90
43987;DHT22;29650;47.378;8.300;2023-05-13T04:06:36;13.00;99.90
43987;DHT22;29650;47.378;8.300;2023-05-13T04:09:05;13.00;99.90
43987;DHT22;29650;47.378;8.300;2023-05-13T04:11:51;12.90;99.90
43987;DHT22;29650;47.378;8.300;2023-05-13T04:14:30;12.90;99.90
43987;DHT22;29650;47.378;8.300;2023-05-13T04:17:08;12.90;99.90
43987;DHT22;29650;47.378;8.300;2023-05-13T04:19:51;12.80;99.90
43987;DHT22;29650;47.378;8.300;2023-05-13T04:22:23;12.90;99.90
43987;DHT22;29650;47.378;8.300;2023-05-13T04:25:06;11.90;99.90
43987;DHT22;29650;47.378;8.300;2023-05-13T04:27:55;12.90;99.90
43987;DHT22;29650;47.378;8.300;2023-05-13T04:30:26;12.80;99.90
43987;DHT22;29650;47.378;8.300;2023-05-13T04:32:55;12.80;99.90
43987;DHT22;29650;47.378;8.300;2023-05-13T04:35:42;12.90;99.90
43987;DHT22;29650;47.378;8.300;2023-05-13T04:38:16;12.80;99.90
43987;DHT22;29650;47.378;8.300;2023-05-13T04:40:55;12.70;99.90
43987;DHT22;29650;47.378;8.300;2023-05-13T04:43:28;12.70;99.90
43987;DHT22;29650;47.378;8.300;2023-05-13T04:45:57;12.80;99.90
43987;DHT22;29650;47.378;8.300;2023-05-13T04:48:44;12.90;99.90
43987;DHT22;29650;47.378;8.300;2023-05-13T04:51:15;12.90;99.90
43987;DHT22;29650;47.378;8.300;2023-05-13T04:57:10;12.70;99.90
43987;DHT22;29650;47.378;8.300;2023-05-13T04:59:38;12.70;99.90
43987;DHT22;29650;47.378;8.300;2023-05-13T05:02:13;12.70;99.90
43987;DHT22;29650;47.378;8.300;2023-05-13T05:04:41;12.70;99.90
43987;DHT22;29650;47.378;8.300;2023-05-13T05:07:08;12.70;99.90
43987;DHT22;29650;47.378;8.300;2023-05-13T05:09:35;12.60;99.90
43987;DHT22;29650;47.378;8.300;2023-05-13T05:12:03;12.70;99.90
43987;DHT22;29650;47.378;8.300;2023-05-13T05:14:30;12.60;99.90
43987;DHT22;29650;47.378;8.300;2023-05-13T05:16:57;12.70;99.90
43987;DHT22;29650;47.378;8.300;2023-05-13T05:19:29;12.70;99.90
43987;DHT22;29650;47.378;8.300;2023-05-13T05:22:02;12.60;99.90
43987;DHT22;29650;47.378;8.300;2023-05-13T05:24:47;12.00;99.90
43987;DHT22;29650;47.378;8.300;2023-05-13T05:27:32;12.60;99.90
43987;DHT22;29650;47.378;8.300;2023-05-13T05:29:59;12.50;99.90
43987;DHT22;29650;47.378;8.300;2023-05-13T05:32:26;12.60;99.90
43987;DHT22;29650;47.378;8.300;2023-05-13T05:35:11;12.60;99.90
43987;DHT22;29650;47.378;8.300;2023-05-13T05:37:41;12.60;99.90
43987;DHT22;29650;47.378;8.300;2023-05-13T05:40:09;12.60;99.90
43987;DHT22;29650;47.378;8.300;2023-05-13T05:42:36;12.90;99.90
43987;DHT22;29650;47.378;8.300;2023-05-13T05:48:16;12.80;99.90
43987;DHT22;29650;47.378;8.300;2023-05-13T05:50:43;12.80;99.90
43987;DHT22;29650;47.378;8.300;2023-05-13T05:53:26;12.90;99.90
43987;DHT22;29650;47.378;8.300;2023-05-13T05:58:44;13.00;99.90
43987;DHT22;29650;47.378;8.300;2023-05-13T06:01:11;13.00;99.90
43987;DHT22;29650;47.378;8.300;2023-05-13T06:03:38;13.10;99.90
43987;DHT22;29650;47.378;8.300;2023-05-13T06:06:05;13.00;99.90
43987;DHT22;29650;47.378;8.300;2023-05-13T06:08:33;13.10;99.90
43987;DHT22;29650;47.378;8.300;2023-05-13T06:14:01;13.00;99.90
43987;DHT22;29650;47.378;8.300;2023-05-13T06:16:28;13.10;99.90
43987;DHT22;29650;47.378;8.300;2023-05-13T06:18:55;13.10;99.90
43987;DHT22;29650;47.378;8.300;2023-05-13T06:21:22;13.10;99.90
43987;DHT22;29650;47.378;8.300;2023-05-13T06:23:50;13.10;99.90
43987;DHT22;29650;47.378;8.300;2023-05-13T06:26:17;13.20;99.90
43987;DHT22;29650;47.378;8.300;2023-05-13T06:28:44;13.10;99.90
43987;DHT22;29650;47.378;8.300;2023-05-13T06:31:11;13.10;99.90
43987;DHT22;29650;47.378;8.300;2023-05-13T06:33:38;13.20;99.90
43987;DHT22;29650;47.378;8.300;2023-05-13T06:36:05;13.10;99.90
43987;DHT22;29650;47.378;8.300;2023-05-13T06:38:34;13.20;99.90
43987;DHT22;29650;47.378;8.300;2023-05-13T06:41:02;13.30;99.90
43987;DHT22;29650;47.378;8.300;2023-05-13T06:43:30;13.30;99.90
43987;DHT22;29650;47.378;8.300;2023-05-13T06:45:57;13.40;99.90
43987;DHT22;29650;47.378;8.300;2023-05-13T06:48:39;13.50;99.90
43987;DHT22;29650;47.378;8.300;2023-05-13T06:51:18;13.40;99.90
43987;DHT22;29650;47.378;8.300;2023-05-13T06:56:45;13.40;99.90
43987;DHT22;29650;47.378;8.300;2023-05-13T06:59:30;13.40;99.90
43987;DHT22;29650;47.378;8.300;2023-05-13T07:01:58;13.40;99.90
43987;DHT22;29650;47.378;8.300;2023-05-13T07:04:29;13.40;99.90
43987;DHT22;29650;47.378;8.300;2023-05-13T07:06:59;13.70;99.90
43987;DHT22;29650;47.378;8.300;2023-05-13T07:09:30;13.70;99.90
43987;DHT22;29650;47.378;8.300;2023-05-13T07:12:05;13.70;99.90
43987;DHT22;29650;47.378;8.300;2023-05-13T07:14:52;13.60;99.90
43987;DHT22;29650;47.378;8.300;2023-05-13T07:17:19;13.80;99.50
43987;DHT22;29650;47.378;8.300;2023-05-13T07:19:58;13.90;99.10
43987;DHT22;29650;47.378;8.300;2023-05-13T07:22:28;14.00;98.70
43987;DHT22;29650;47.378;8.300;2023-05-13T07:24:55;14.00;97.90
43987;DHT22;29650;47.378;8.300;2023-05-13T07:27:29;14.10;98.70
43987;DHT22;29650;47.378;8.300;2023-05-13T07:30:08;14.00;97.80
43987;DHT22;29650;47.378;8.300;2023-05-13T07:32:35;14.10;97.90
43987;DHT22;29650;47.378;8.300;2023-05-13T07:35:15;14.00;97.80
43987;DHT22;29650;47.378;8.300;2023-05-13T07:37:43;14.10;96.90
43987;DHT22;29650;47.378;8.300;2023-05-13T07:40:10;14.00;98.10
43987;DHT22;29650;47.378;8.300;2023-05-13T07:42:40;13.90;99.40
43987;DHT22;29650;47.378;8.300;2023-05-13T07:45:10;13.70;98.40
43987;DHT22;29650;47.378;8.300;2023-05-13T07:47:40;13.80;98.80
43987;DHT22;29650;47.378;8.300;2023-05-13T07:50:07;13.80;98.40
43987;DHT22;29650;47.378;8.300;2023-05-13T07:52:35;13.60;99.90
43987;DHT22;29650;47.378;8.300;2023-05-13T07:55:03;13.60;99.90
43987;DHT22;29650;47.378;8.300;2023-05-13T07:57:30;13.70;99.90
43987;DHT22;29650;47.378;8.300;2023-05-13T08:00:01;13.70;99.90
43987;DHT22;29650;47.378;8.300;2023-05-13T08:02:29;13.60;99.90
43987;DHT22;29650;47.378;8.300;2023-05-13T08:04:59;13.70;99.90
43987;DHT22;29650;47.378;8.300;2023-05-13T08:07:27;13.80;99.90
43987;DHT22;29650;47.378;8.300;2023-05-13T08:09:54;13.80;99.30
43987;DHT22;29650;47.378;8.300;2023-05-13T08:12:21;13.70;99.90
43987;DHT22;29650;47.378;8.300;2023-05-13T08:14:48;14.00;99.40
43987;DHT22;29650;47.378;8.300;2023-05-13T08:17:32;14.10;98.00
43987;DHT22;29650;47.378;8.300;2023-05-13T08:20:00;13.90;98.90
43987;DHT22;29650;47.378;8.300;2023-05-13T08:22:27;14.10;98.00
43987;DHT22;29650;47.378;8.300;2023-05-13T08:24:54;14.30;97.50
43987;DHT22;29650;47.378;8.300;2023-05-13T08:27:35;14.40;97.40
43987;DHT22;29650;47.378;8.300;2023-05-13T08:30:03;14.50;97.80
43987;DHT22;29650;47.378;8.300;2023-05-13T08:32:34;14.40;96.80
43987;DHT22;29650;47.378;8.300;2023-05-13T08:35:01;14.60;96.30
43987;DHT22;29650;47.378;8.300;2023-05-13T08:37:28;14.60;95.10
43987;DHT22;29650;47.378;8.300;2023-05-13T08:39:55;14.50;96.70
43987;DHT22;29650;47.378;8.300;2023-05-13T08:42:24;14.60;97.00
43987;DHT22;29650;47.378;8.300;2023-05-13T08:44:54;14.60;96.90
43987;DHT22;29650;47.378;8.300;2023-05-13T08:47:26;14.70;96.30
43987;DHT22;29650;47.378;8.300;2023-05-13T08:49:56;14.70;95.60
43987;DHT22;29650;47.378;8.300;2023-05-13T08:52:23;14.70;93.30
43987;DHT22;29650;47.378;8.300;2023-05-13T08:54:51;14.80;97.80
43987;DHT22;29650;47.378;8.300;2023-05-13T08:57:19;14.80;95.90
43987;DHT22;29650;47.378;8.300;2023-05-13T08:59:46;14.80;93.00
43987;DHT22;29650;47.378;8.300;2023-05-13T09:02:13;14.90;92.70
43987;DHT22;29650;47.378;8.300;2023-05-13T09:04:40;14.90;95.30
43987;DHT22;29650;47.378;8.300;2023-05-13T09:07:11;15.10;92.80
43987;DHT22;29650;47.378;8.300;2023-05-13T09:09:38;14.90;92.40
43987;DHT22;29650;47.378;8.300;2023-05-13T09:12:05;14.90;93.70
43987;DHT22;29650;47.378;8.300;2023-05-13T09:14:38;14.80;92.20
43987;DHT22;29650;47.378;8.300;2023-05-13T09:17:05;14.90;92.50
43987;DHT22;29650;47.378;8.300;2023-05-13T09:19:32;14.90;92.10
43987;DHT22;29650;47.378;8.300;2023-05-13T09:22:01;15.10;92.20
43987;DHT22;29650;47.378;8.300;2023-05-13T09:24:29;15.20;92.90
43987;DHT22;29650;47.378;8.300;2023-05-13T09:26:56;15.10;92.00
43987;DHT22;29650;47.378;8.300;2023-05-13T09:29:24;15.20;92.20
43987;DHT22;29650;47.378;8.300;2023-05-13T09:31:54;15.30;91.20
43987;DHT22;29650;47.378;8.300;2023-05-13T09:34:27;15.30;91.30
43987;DHT22;29650;47.378;8.300;2023-05-13T09:37:00;15.20;92.00
43987;DHT22;29650;47.378;8.300;2023-05-13T09:39:31;15.40;91.20
43987;DHT22;29650;47.378;8.300;2023-05-13T09:41:59;15.40;90.50
43987;DHT22;29650;47.378;8.300;2023-05-13T09:44:26;15.60;90.30
43987;DHT22;29650;47.378;8.300;2023-05-13T09:46:53;15.60;88.10
43987;DHT22;29650;47.378;8.300;2023-05-13T09:49:25;15.50;87.00
43987;DHT22;29650;47.378;8.300;2023-05-13T09:51:52;15.80;89.00
43987;DHT22;29650;47.378;8.300;2023-05-13T09:54:20;15.50;87.70
43987;DHT22;29650;47.378;8.300;2023-05-13T09:56:48;15.50;89.00
43987;DHT22;29650;47.378;8.300;2023-05-13T09:59:16;15.60;90.20
43987;DHT22;29650;47.378;8.300;2023-05-13T10:01:43;15.60;88.50
43987;DHT22;29650;47.378;8.300;2023-05-13T10:04:11;15.70;86.30
43987;DHT22;29650;47.378;8.300;2023-05-13T10:06:38;15.70;88.60
43987;DHT22;29650;47.378;8.300;2023-05-13T10:09:06;15.70;84.90
43987;DHT22;29650;47.378;8.300;2023-05-13T10:11:34;15.90;84.70
43987;DHT22;29650;47.378;8.300;2023-05-13T10:14:05;15.80;83.50
43987;DHT22;29650;47.378;8.300;2023-05-13T10:16:32;15.80;82.30
43987;DHT22;29650;47.378;8.300;2023-05-13T10:18:59;15.80;82.00
43987;DHT22;29650;47.378;8.300;2023-05-13T10:21:27;15.90;80.70
43987;DHT22;29650;47.378;8.300;2023-05-13T10:23:55;16.00;80.50
43987;DHT22;29650;47.378;8.300;2023-05-13T10:26:22;14.70;80.40
43987;DHT22;29650;47.378;8.300;2023-05-13T10:28:50;16.00;78.20
43987;DHT22;29650;47.378;8.300;2023-05-13T10:31:18;16.00;81.80
43987;DHT22;29650;47.378;8.300;2023-05-13T10:33:45;16.10;79.40
43987;DHT22;29650;47.378;8.300;2023-05-13T10:36:26;16.00;80.20
43987;DHT22;29650;47.378;8.300;2023-05-13T10:39:05;16.10;83.30
43987;DHT22;29650;47.378;8.300;2023-05-13T10:42:06;16.30;79.80
43987;DHT22;29650;47.378;8.300;2023-05-13T10:44:34;16.30;80.20
43987;DHT22;29650;47.378;8.300;2023-05-13T10:47:03;16.40;78.50
43987;DHT22;29650;47.378;8.300;2023-05-13T10:49:32;16.10;78.90
43987;DHT22;29650;47.378;8.300;2023-05-13T10:52:03;15.80;80.00
43987;DHT22;29650;47.378;8.300;2023-05-13T10:54:35;15.80;81.20
43987;DHT22;29650;47.378;8.300;2023-05-13T10:57:05;16.00;83.00
43987;DHT22;29650;47.378;8.300;2023-05-13T10:59:32;16.00;81.40
43987;DHT22;29650;47.378;8.300;2023-05-13T11:02:03;16.40;79.60
43987;DHT22;29650;47.378;8.300;2023-05-13T11:04:57;16.20;79.80
43987;DHT22;29650;47.378;8.300;2023-05-13T11:07:27;16.30;79.30
43987;DHT22;29650;47.378;8.300;2023-05-13T11:09:55;16.50;80.70
43987;DHT22;29650;47.378;8.300;2023-05-13T11:12:22;16.50;79.50
43987;DHT22;29650;47.378;8.300;2023-05-13T11:14:49;16.90;78.90
43987;DHT22;29650;47.378;8.300;2023-05-13T11:17:18;16.70;78.40
43987;DHT22;29650;47.378;8.300;2023-05-13T11:19:48;16.50;75.60
43987;DHT22;29650;47.378;8.300;2023-05-13T11:22:19;16.70;75.50
43987;DHT22;29650;47.378;8.300;2023-05-13T11:25:03;16.90;75.20
43987;DHT22;29650;47.378;8.300;2023-05-13T11:27:36;16.90;75.60
43987;DHT22;29650;47.378;8.300;2023-05-13T11:30:06;16.80;78.00
43987;DHT22;29650;47.378;8.300;2023-05-13T11:32:54;16.90;75.80
43987;DHT22;29650;47.378;8.300;2023-05-13T11:35:22;16.90;74.30
43987;DHT22;29650;47.378;8.300;2023-05-13T11:37:49;16.60;76.60
43987;DHT22;29650;47.378;8.300;2023-05-13T11:40:23;17.00;76.40
43987;DHT22;29650;47.378;8.300;2023-05-13T11:42:51;16.90;74.30
43987;DHT22;29650;47.378;8.300;2023-05-13T11:45:19;17.00;72.80
43987;DHT22;29650;47.378;8.300;2023-05-13T11:47:46;17.10;74.50
43987;DHT22;29650;47.378;8.300;2023-05-13T11:50:19;16.90;73.60
43987;DHT22;29650;47.378;8.300;2023-05-13T11:52:50;17.00;75.00
43987;DHT22;29650;47.378;8.300;2023-05-13T11:55:28;17.20;76.10
43987;DHT22;29650;47.378;8.300;2023-05-13T11:57:55;17.50;75.60
43987;DHT22;29650;47.378;8.300;2023-05-13T12:00:24;17.40;75.30
43987;DHT22;29650;47.378;8.300;2023-05-13T12:02:52;17.20;78.10
43987;DHT22;29650;47.378;8.300;2023-05-13T12:05:20;17.30;75.80
43987;DHT22;29650;47.378;8.300;2023-05-13T12:07:47;17.20;73.30
43987;DHT22;29650;47.378;8.300;2023-05-13T12:10:15;17.60;75.00
43987;DHT22;29650;47.378;8.300;2023-05-13T12:12:43;17.40;72.80
43987;DHT22;29650;47.378;8.300;2023-05-13T12:15:13;17.20;73.50
43987;DHT22;29650;47.378;8.300;2023-05-13T12:17:40;17.10;72.40
43987;DHT22;29650;47.378;8.300;2023-05-13T12:20:09;16.80;74.40
43987;DHT22;29650;47.378;8.300;2023-05-13T12:22:49;16.70;75.80
43987;DHT22;29650;47.378;8.300;2023-05-13T12:25:47;17.00;74.60
43987;DHT22;29650;47.378;8.300;2023-05-13T12:28:16;17.50;71.80
43987;DHT22;29650;47.378;8.300;2023-05-13T12:30:49;17.50;72.30
43987;DHT22;29650;47.378;8.300;2023-05-13T12:33:17;17.90;72.10
43987;DHT22;29650;47.378;8.300;2023-05-13T12:35:47;17.70;72.20
43987;DHT22;29650;47.378;8.300;2023-05-13T12:38:17;17.50;70.60
43987;DHT22;29650;47.378;8.300;2023-05-13T12:40:45;17.30;70.60
43987;DHT22;29650;47.378;8.300;2023-05-13T12:43:13;17.40;71.10
43987;DHT22;29650;47.378;8.300;2023-05-13T12:45:41;17.50;70.10
43987;DHT22;29650;47.378;8.300;2023-05-13T12:48:08;17.50;70.50
43987;DHT22;29650;47.378;8.300;2023-05-13T12:50:35;17.50;70.40
43987;DHT22;29650;47.378;8.300;2023-05-13T12:53:02;17.40;73.40
43987;DHT22;29650;47.378;8.300;2023-05-13T12:55:31;17.50;73.40
43987;DHT22;29650;47.378;8.300;2023-05-13T12:58:02;17.80;75.50
43987;DHT22;29650;47.378;8.300;2023-05-13T13:00:29;17.60;72.10
43987;DHT22;29650;47.378;8.300;2023-05-13T13:02:57;17.80;72.50
43987;DHT22;29650;47.378;8.300;2023-05-13T13:05:24;17.60;71.40
43987;DHT22;29650;47.378;8.300;2023-05-13T13:07:51;17.90;70.50
43987;DHT22;29650;47.378;8.300;2023-05-13T13:10:18;18.40;68.60
43987;DHT22;29650;47.378;8.300;2023-05-13T13:12:47;18.40;68.90
43987;DHT22;29650;47.378;8.300;2023-05-13T13:15:14;18.80;65.70
43987;DHT22;29650;47.378;8.300;2023-05-13T13:17:40;18.70;66.40
43987;DHT22;29650;47.378;8.300;2023-05-13T13:20:08;18.30;71.40
43987;DHT22;29650;47.378;8.300;2023-05-13T13:22:35;18.20;70.40
43987;DHT22;29650;47.378;8.300;2023-05-13T13:25:03;18.10;69.80
43987;DHT22;29650;47.378;8.300;2023-05-13T13:27:31;17.60;70.80
43987;DHT22;29650;47.378;8.300;2023-05-13T13:30:00;17.70;69.40
43987;DHT22;29650;47.378;8.300;2023-05-13T13:32:27;17.80;70.90
43987;DHT22;29650;47.378;8.300;2023-05-13T13:34:54;17.90;70.60
43987;DHT22;29650;47.378;8.300;2023-05-13T13:37:22;17.80;70.60
43987;DHT22;29650;47.378;8.300;2023-05-13T13:39:49;17.50;72.50
43987;DHT22;29650;47.378;8.300;2023-05-13T13:42:16;17.70;70.90
43987;DHT22;29650;47.378;8.300;2023-05-13T13:44:43;17.70;69.90
43987;DHT22;29650;47.378;8.300;2023-05-13T13:47:11;18.10;71.50
43987;DHT22;29650;47.378;8.300;2023-05-13T13:49:38;18.50;68.50
43987;DHT22;29650;47.378;8.300;2023-05-13T13:52:06;18.40;67.60
43987;DHT22;29650;47.378;8.300;2023-05-13T13:54:33;18.90;65.80
43987;DHT22;29650;47.378;8.300;2023-05-13T13:57:00;19.40;66.70
43987;DHT22;29650;47.378;8.300;2023-05-13T13:59:27;17.90;67.60
43987;DHT22;29650;47.378;8.300;2023-05-13T14:01:54;17.60;69.10
43987;DHT22;29650;47.378;8.300;2023-05-13T14:04:22;17.50;69.00
43987;DHT22;29650;47.378;8.300;2023-05-13T14:06:52;17.70;69.50
43987;DHT22;29650;47.378;8.300;2023-05-13T14:09:20;17.60;66.10
43987;DHT22;29650;47.378;8.300;2023-05-13T14:11:46;17.70;66.30
43987;DHT22;29650;47.378;8.300;2023-05-13T14:14:13;18.00;65.40
43987;DHT22;29650;47.378;8.300;2023-05-13T14:16:40;18.10;68.70
43987;DHT22;29650;47.378;8.300;2023-05-13T14:19:10;18.00;65.60
43987;DHT22;29650;47.378;8.300;2023-05-13T14:21:38;17.80;67.30
43987;DHT22;29650;47.378;8.300;2023-05-13T14:24:05;17.80;68.30
43987;DHT22;29650;47.378;8.300;2023-05-13T14:26:36;17.80;68.50
43987;DHT22;29650;47.378;8.300;2023-05-13T14:29:03;17.30;69.50
43987;DHT22;29650;47.378;8.300;2023-05-13T14:31:30;17.30;70.00
43987;DHT22;29650;47.378;8.300;2023-05-13T14:33:57;17.10;70.60
43987;DHT22;29650;47.378;8.300;2023-05-13T14:36:24;17.00;70.60
43987;DHT22;29650;47.378;8.300;2023-05-13T14:38:53;17.10;70.60
43987;DHT22;29650;47.378;8.300;2023-05-13T14:41:20;17.20;72.00
43987;DHT22;29650;47.378;8.300;2023-05-13T14:43:48;17.80;69.50
43987;DHT22;29650;47.378;8.300;2023-05-13T14:46:15;17.50;67.70
43987;DHT22;29650;47.378;8.300;2023-05-13T14:48:42;17.50;68.50
43987;DHT22;29650;47.378;8.300;2023-05-13T14:51:09;17.70;67.30
43987;DHT22;29650;47.378;8.300;2023-05-13T14:53:37;17.90;65.20
43987;DHT22;29650;47.378;8.300;2023-05-13T14:56:06;17.70;65.70
43987;DHT22;29650;47.378;8.300;2023-05-13T14:58:33;17.60;68.20
43987;DHT22;29650;47.378;8.300;2023-05-13T15:01:00;17.60;69.10
43987;DHT22;29650;47.378;8.300;2023-05-13T15:03:27;17.60;66.80
43987;DHT22;29650;47.378;8.300;2023-05-13T15:05:54;17.40;66.90
43987;DHT22;29650;47.378;8.300;2023-05-13T15:08:21;17.40;68.40
43987;DHT22;29650;47.378;8.300;2023-05-13T15:10:48;17.40;69.60
43987;DHT22;29650;47.378;8.300;2023-05-13T15:13:16;17.50;68.60
43987;DHT22;29650;47.378;8.300;2023-05-13T15:15:43;17.30;69.90
43987;DHT22;29650;47.378;8.300;2023-05-13T15:18:12;17.10;69.80
43987;DHT22;29650;47.378;8.300;2023-05-13T15:20:39;17.20;69.10
43987;DHT22;29650;47.378;8.300;2023-05-13T15:23:06;17.00;70.80
43987;DHT22;29650;47.378;8.300;2023-05-13T15:25:33;17.20;69.00
43987;DHT22;29650;47.378;8.300;2023-05-13T15:28:00;17.20;70.00
43987;DHT22;29650;47.378;8.300;2023-05-13T15:30:28;17.30;70.00
43987;DHT22;29650;47.378;8.300;2023-05-13T15:32:55;17.30;69.00
43987;DHT22;29650;47.378;8.300;2023-05-13T15:35:22;18.40;71.40
43987;DHT22;29650;47.378;8.300;2023-05-13T15:37:49;17.20;70.00
43987;DHT22;29650;47.378;8.300;2023-05-13T15:40:16;17.50;69.70
43987;DHT22;29650;47.378;8.300;2023-05-13T15:42:43;17.40;70.00
43987;DHT22;29650;47.378;8.300;2023-05-13T15:45:10;17.50;70.20
43987;DHT22;29650;47.378;8.300;2023-05-13T15:47:38;17.10;69.90
43987;DHT22;29650;47.378;8.300;2023-05-13T15:50:06;16.90;71.60
43987;DHT22;29650;47.378;8.300;2023-05-13T15:52:34;16.60;70.90
43987;DHT22;29650;47.378;8.300;2023-05-13T15:55:01;17.10;72.20
43987;DHT22;29650;47.378;8.300;2023-05-13T15:57:28;17.50;71.90
43987;DHT22;29650;47.378;8.300;2023-05-13T15:59:55;17.30;71.70
43987;DHT22;29650;47.378;8.300;2023-05-13T16:02:22;17.50;69.60
43987;DHT22;29650;47.378;8.300;2023-05-13T16:04:50;17.60;70.90
43987;DHT22;29650;47.378;8.300;2023-05-13T16:07:17;17.60;68.80
43987;DHT22;29650;47.378;8.300;2023-05-13T16:09:44;17.50;68.80
43987;DHT22;29650;47.378;8.300;2023-05-13T16:12:11;17.10;70.50
43987;DHT22;29650;47.378;8.300;2023-05-13T16:14:38;17.30;70.80
43987;DHT22;29650;47.378;8.300;2023-05-13T16:17:05;17.50;69.70